Louisville, Illinois
Current Conditions -  °F | °C
As of 12:15 AM on Thursday 29 Jan 2015 (Local Time) from KFOA Reporting Station
Light Rain Light Rain  
Wind Chill: 32°   Ceiling: 9000
Heat Index: 39°   Visibility: 10mi
Dew Point: 32°   Wind: 12mph
Humidity: 76%   Direction: 170°S
Pressure: 29.91"   Gusts: NA
Location:  38.77°N, 88.5°W
Report Text: KFOA 290615Z AUTO 17010KT 10SM -RA SCT045 BKN090 OVC110 04/00 A2991 RMK AO2 T00380000
Loading
Personal Weather Stations






























Interactive Weather Map New forecast layout! Learn more

10-Day Weather Forecast

Advertisements
Track Severe Weather on mobile